sensor_id;sensor_type;location;lat;lon;timestamp;temperature;humidity
35127;DHT22;21300;52.006;5.798;2024-01-06T00:01:37;5.00;99.90
35127;DHT22;21300;52.006;5.798;2024-01-06T00:04:02;4.90;99.90
35127;DHT22;21300;52.006;5.798;2024-01-06T00:06:28;4.90;99.90
35127;DHT22;21300;52.006;5.798;2024-01-06T00:08:53;4.80;99.90
35127;DHT22;21300;52.006;5.798;2024-01-06T00:11:21;4.80;99.90
35127;DHT22;21300;52.006;5.798;2024-01-06T00:13:47;4.80;99.90
35127;DHT22;21300;52.006;5.798;2024-01-06T00:16:16;4.80;99.90
35127;DHT22;21300;52.006;5.798;2024-01-06T00:18:41;4.80;99.90
35127;DHT22;21300;52.006;5.798;2024-01-06T00:21:08;4.70;99.90
35127;DHT22;21300;52.006;5.798;2024-01-06T00:23:33;4.80;99.90
35127;DHT22;21300;52.006;5.798;2024-01-06T00:25:59;4.70;99.90
35127;DHT22;21300;52.006;5.798;2024-01-06T00:28:25;4.70;99.90
35127;DHT22;21300;52.006;5.798;2024-01-06T00:30:50;4.70;99.90
35127;DHT22;21300;52.006;5.798;2024-01-06T00:33:16;4.70;99.90
35127;DHT22;21300;52.006;5.798;2024-01-06T00:35:41;4.70;99.90
35127;DHT22;21300;52.006;5.798;2024-01-06T00:38:07;4.70;99.90
35127;DHT22;21300;52.006;5.798;2024-01-06T00:40:33;4.60;99.90
35127;DHT22;21300;52.006;5.798;2024-01-06T00:42:59;4.60;99.90
35127;DHT22;21300;52.006;5.798;2024-01-06T00:45:24;4.70;99.90
35127;DHT22;21300;52.006;5.798;2024-01-06T00:47:50;4.70;99.90
35127;DHT22;21300;52.006;5.798;2024-01-06T00:50:16;4.60;99.90
35127;DHT22;21300;52.006;5.798;2024-01-06T00:52:43;4.60;99.90
35127;DHT22;21300;52.006;5.798;2024-01-06T00:55:09;4.60;99.90
35127;DHT22;21300;52.006;5.798;2024-01-06T00:57:35;4.60;99.90
35127;DHT22;21300;52.006;5.798;2024-01-06T01:00:00;4.60;99.90
35127;DHT22;21300;52.006;5.798;2024-01-06T01:02:26;4.60;99.90
35127;DHT22;21300;52.006;5.798;2024-01-06T01:04:51;4.60;99.90
35127;DHT22;21300;52.006;5.798;2024-01-06T01:07:18;4.60;99.90
35127;DHT22;21300;52.006;5.798;2024-01-06T01:09:44;4.60;99.90
35127;DHT22;21300;52.006;5.798;2024-01-06T01:12:09;4.60;99.90
35127;DHT22;21300;52.006;5.798;2024-01-06T01:14:35;4.60;99.90
35127;DHT22;21300;52.006;5.798;2024-01-06T01:17:01;4.50;99.90
35127;DHT22;21300;52.006;5.798;2024-01-06T01:19:26;4.50;99.90
35127;DHT22;21300;52.006;5.798;2024-01-06T01:21:52;4.50;99.90
35127;DHT22;21300;52.006;5.798;2024-01-06T01:24:21;4.50;99.90
35127;DHT22;21300;52.006;5.798;2024-01-06T01:26:47;4.50;99.90
35127;DHT22;21300;52.006;5.798;2024-01-06T01:29:13;4.50;99.90
35127;DHT22;21300;52.006;5.798;2024-01-06T01:31:38;4.50;99.90
35127;DHT22;21300;52.006;5.798;2024-01-06T01:34:04;4.50;99.90
35127;DHT22;21300;52.006;5.798;2024-01-06T01:36:30;4.50;99.90
35127;DHT22;21300;52.006;5.798;2024-01-06T01:38:55;4.40;99.90
35127;DHT22;21300;52.006;5.798;2024-01-06T01:41:21;4.40;99.90
35127;DHT22;21300;52.006;5.798;2024-01-06T01:43:46;4.40;99.90
35127;DHT22;21300;52.006;5.798;2024-01-06T01:46:12;4.40;99.90
35127;DHT22;21300;52.006;5.798;2024-01-06T01:48:38;4.40;99.90
35127;DHT22;21300;52.006;5.798;2024-01-06T01:51:04;4.30;99.90
35127;DHT22;21300;52.006;5.798;2024-01-06T01:53:31;4.30;99.90
35127;DHT22;21300;52.006;5.798;2024-01-06T01:55:58;4.30;99.90
35127;DHT22;21300;52.006;5.798;2024-01-06T01:58:24;4.30;99.90
35127;DHT22;21300;52.006;5.798;2024-01-06T02:00:49;4.40;99.90
35127;DHT22;21300;52.006;5.798;2024-01-06T02:03:16;4.30;99.90
35127;DHT22;21300;52.006;5.798;2024-01-06T02:05:41;4.30;99.90
35127;DHT22;21300;52.006;5.798;2024-01-06T02:08:07;4.30;99.90
35127;DHT22;21300;52.006;5.798;2024-01-06T02:10:33;4.30;99.90
35127;DHT22;21300;52.006;5.798;2024-01-06T02:13:10;4.30;99.90
35127;DHT22;21300;52.006;5.798;2024-01-06T02:15:36;4.30;99.90
35127;DHT22;21300;52.006;5.798;2024-01-06T02:18:03;4.30;99.90
35127;DHT22;21300;52.006;5.798;2024-01-06T02:20:30;4.30;99.90
35127;DHT22;21300;52.006;5.798;2024-01-06T02:22:56;4.20;99.90
35127;DHT22;21300;52.006;5.798;2024-01-06T02:25:24;4.20;99.90
35127;DHT22;21300;52.006;5.798;2024-01-06T02:27:49;4.20;99.90
35127;DHT22;21300;52.006;5.798;2024-01-06T02:30:15;4.10;99.90
35127;DHT22;21300;52.006;5.798;2024-01-06T02:32:41;4.10;99.90
35127;DHT22;21300;52.006;5.798;2024-01-06T02:35:07;4.00;99.90
35127;DHT22;21300;52.006;5.798;2024-01-06T02:37:32;4.10;99.90
35127;DHT22;21300;52.006;5.798;2024-01-06T02:39:58;4.00;99.90
35127;DHT22;21300;52.006;5.798;2024-01-06T02:42:24;4.00;99.90
35127;DHT22;21300;52.006;5.798;2024-01-06T02:44:50;4.00;99.90
35127;DHT22;21300;52.006;5.798;2024-01-06T02:47:16;4.00;99.90
35127;DHT22;21300;52.006;5.798;2024-01-06T02:49:42;4.00;99.90
35127;DHT22;21300;52.006;5.798;2024-01-06T02:52:07;4.00;99.90
35127;DHT22;21300;52.006;5.798;2024-01-06T02:54:33;4.00;99.90
35127;DHT22;21300;52.006;5.798;2024-01-06T02:56:59;4.00;99.90
35127;DHT22;21300;52.006;5.798;2024-01-06T02:59:24;4.00;99.90
35127;DHT22;21300;52.006;5.798;2024-01-06T03:01:50;4.00;99.90
35127;DHT22;21300;52.006;5.798;2024-01-06T03:04:15;4.00;99.90
35127;DHT22;21300;52.006;5.798;2024-01-06T03:06:42;3.90;99.90
35127;DHT22;21300;52.006;5.798;2024-01-06T03:09:07;3.90;99.90
35127;DHT22;21300;52.006;5.798;2024-01-06T03:11:33;3.90;99.90
35127;DHT22;21300;52.006;5.798;2024-01-06T03:13:58;3.90;99.90
35127;DHT22;21300;52.006;5.798;2024-01-06T03:16:24;3.90;99.90
35127;DHT22;21300;52.006;5.798;2024-01-06T03:18:50;3.90;99.90
35127;DHT22;21300;52.006;5.798;2024-01-06T03:21:19;3.90;99.90
35127;DHT22;21300;52.006;5.798;2024-01-06T03:23:46;3.90;99.90
35127;DHT22;21300;52.006;5.798;2024-01-06T03:26:12;3.80;99.90
35127;DHT22;21300;52.006;5.798;2024-01-06T03:28:38;3.80;99.90
35127;DHT22;21300;52.006;5.798;2024-01-06T03:31:03;3.80;99.90
35127;DHT22;21300;52.006;5.798;2024-01-06T03:33:29;3.80;99.90
35127;DHT22;21300;52.006;5.798;2024-01-06T03:35:54;3.80;99.90
35127;DHT22;21300;52.006;5.798;2024-01-06T03:38:20;3.80;99.90
35127;DHT22;21300;52.006;5.798;2024-01-06T03:40:46;3.90;99.90
35127;DHT22;21300;52.006;5.798;2024-01-06T03:43:11;3.80;99.90
35127;DHT22;21300;52.006;5.798;2024-01-06T03:45:37;3.90;99.90
35127;DHT22;21300;52.006;5.798;2024-01-06T03:48:03;3.80;99.90
35127;DHT22;21300;52.006;5.798;2024-01-06T03:50:28;3.80;99.90
35127;DHT22;21300;52.006;5.798;2024-01-06T03:52:54;3.80;99.90
35127;DHT22;21300;52.006;5.798;2024-01-06T03:55:19;3.80;99.90
35127;DHT22;21300;52.006;5.798;2024-01-06T03:57:48;3.80;99.90
35127;DHT22;21300;52.006;5.798;2024-01-06T04:00:13;3.80;99.90
35127;DHT22;21300;52.006;5.798;2024-01-06T04:02:39;3.80;99.90
35127;DHT22;21300;52.006;5.798;2024-01-06T04:05:08;3.80;99.90
35127;DHT22;21300;52.006;5.798;2024-01-06T04:07:34;3.80;99.90
35127;DHT22;21300;52.006;5.798;2024-01-06T04:09:59;3.80;99.90
35127;DHT22;21300;52.006;5.798;2024-01-06T04:12:25;3.70;99.90
35127;DHT22;21300;52.006;5.798;2024-01-06T04:14:50;3.70;99.90
35127;DHT22;21300;52.006;5.798;2024-01-06T04:17:16;3.70;99.90
35127;DHT22;21300;52.006;5.798;2024-01-06T04:19:42;3.70;99.90
35127;DHT22;21300;52.006;5.798;2024-01-06T04:22:07;3.70;99.90
35127;DHT22;21300;52.006;5.798;2024-01-06T04:24:33;3.60;99.90
35127;DHT22;21300;52.006;5.798;2024-01-06T04:27:03;3.60;99.90
35127;DHT22;21300;52.006;5.798;2024-01-06T04:29:30;3.60;99.90
35127;DHT22;21300;52.006;5.798;2024-01-06T04:31:55;3.60;99.90
35127;DHT22;21300;52.006;5.798;2024-01-06T04:34:21;3.60;99.90
35127;DHT22;21300;52.006;5.798;2024-01-06T04:36:46;3.50;99.90
35127;DHT22;21300;52.006;5.798;2024-01-06T04:39:14;3.60;99.90
35127;DHT22;21300;52.006;5.798;2024-01-06T04:41:40;3.50;99.90
35127;DHT22;21300;52.006;5.798;2024-01-06T04:44:06;3.50;99.90
35127;DHT22;21300;52.006;5.798;2024-01-06T04:46:31;3.40;99.90
35127;DHT22;21300;52.006;5.798;2024-01-06T04:48:57;3.40;99.90
35127;DHT22;21300;52.006;5.798;2024-01-06T04:51:23;3.50;99.90
35127;DHT22;21300;52.006;5.798;2024-01-06T04:53:48;3.40;99.90
35127;DHT22;21300;52.006;5.798;2024-01-06T04:56:14;3.40;99.90
35127;DHT22;21300;52.006;5.798;2024-01-06T04:58:39;3.30;99.90
35127;DHT22;21300;52.006;5.798;2024-01-06T05:01:06;3.30;99.90
35127;DHT22;21300;52.006;5.798;2024-01-06T05:03:31;3.30;99.90
35127;DHT22;21300;52.006;5.798;2024-01-06T05:05:57;3.30;99.90
35127;DHT22;21300;52.006;5.798;2024-01-06T05:08:23;3.30;99.90
35127;DHT22;21300;52.006;5.798;2024-01-06T05:10:53;3.20;99.90
35127;DHT22;21300;52.006;5.798;2024-01-06T05:13:19;3.20;99.90
35127;DHT22;21300;52.006;5.798;2024-01-06T05:15:45;3.20;99.90
35127;DHT22;21300;52.006;5.798;2024-01-06T05:18:10;3.20;99.90
35127;DHT22;21300;52.006;5.798;2024-01-06T05:20:36;3.20;99.90
35127;DHT22;21300;52.006;5.798;2024-01-06T05:23:01;3.10;99.90
35127;DHT22;21300;52.006;5.798;2024-01-06T05:25:27;3.00;99.90
35127;DHT22;21300;52.006;5.798;2024-01-06T05:27:53;3.00;99.90
35127;DHT22;21300;52.006;5.798;2024-01-06T05:30:18;3.00;99.90
35127;DHT22;21300;52.006;5.798;2024-01-06T05:32:44;3.00;99.90
35127;DHT22;21300;52.006;5.798;2024-01-06T05:35:10;2.90;99.90
35127;DHT22;21300;52.006;5.798;2024-01-06T05:37:35;2.90;99.90
35127;DHT22;21300;52.006;5.798;2024-01-06T05:40:04;2.90;99.90
35127;DHT22;21300;52.006;5.798;2024-01-06T05:42:30;2.90;99.90
35127;DHT22;21300;52.006;5.798;2024-01-06T05:44:56;2.80;99.90
35127;DHT22;21300;52.006;5.798;2024-01-06T05:47:22;2.80;99.90
35127;DHT22;21300;52.006;5.798;2024-01-06T05:49:47;2.80;99.90
35127;DHT22;21300;52.006;5.798;2024-01-06T05:52:13;2.80;99.90
35127;DHT22;21300;52.006;5.798;2024-01-06T05:54:41;2.70;99.90
35127;DHT22;21300;52.006;5.798;2024-01-06T05:57:09;2.70;99.90
35127;DHT22;21300;52.006;5.798;2024-01-06T05:59:35;2.70;99.90
35127;DHT22;21300;52.006;5.798;2024-01-06T06:02:01;2.60;99.90
35127;DHT22;21300;52.006;5.798;2024-01-06T06:04:27;2.70;99.90
35127;DHT22;21300;52.006;5.798;2024-01-06T06:06:52;2.60;99.90
35127;DHT22;21300;52.006;5.798;2024-01-06T06:09:18;2.60;99.90
35127;DHT22;21300;52.006;5.798;2024-01-06T06:11:46;2.70;99.90
35127;DHT22;21300;52.006;5.798;2024-01-06T06:14:11;2.60;99.90
35127;DHT22;21300;52.006;5.798;2024-01-06T06:16:38;2.60;99.90
35127;DHT22;21300;52.006;5.798;2024-01-06T06:19:03;2.60;99.90
35127;DHT22;21300;52.006;5.798;2024-01-06T06:21:29;2.60;99.90
35127;DHT22;21300;52.006;5.798;2024-01-06T06:23:55;2.60;99.90
35127;DHT22;21300;52.006;5.798;2024-01-06T06:26:20;2.60;99.90
35127;DHT22;21300;52.006;5.798;2024-01-06T06:28:46;2.60;99.90
35127;DHT22;21300;52.006;5.798;2024-01-06T06:31:12;2.60;99.90
35127;DHT22;21300;52.006;5.798;2024-01-06T06:33:37;2.60;99.90
35127;DHT22;21300;52.006;5.798;2024-01-06T06:36:04;2.50;99.90
35127;DHT22;21300;52.006;5.798;2024-01-06T06:38:30;2.50;99.90
35127;DHT22;21300;52.006;5.798;2024-01-06T06:40:56;2.50;99.90
35127;DHT22;21300;52.006;5.798;2024-01-06T06:43:21;2.40;99.90
35127;DHT22;21300;52.006;5.798;2024-01-06T06:45:47;2.50;99.90
35127;DHT22;21300;52.006;5.798;2024-01-06T06:48:15;2.40;99.90
35127;DHT22;21300;52.006;5.798;2024-01-06T06:50:41;2.40;99.90
35127;DHT22;21300;52.006;5.798;2024-01-06T06:53:07;2.40;99.90
35127;DHT22;21300;52.006;5.798;2024-01-06T06:55:33;2.30;99.90
35127;DHT22;21300;52.006;5.798;2024-01-06T06:57:59;2.30;99.90
35127;DHT22;21300;52.006;5.798;2024-01-06T07:00:24;2.40;99.90
35127;DHT22;21300;52.006;5.798;2024-01-06T07:02:50;2.30;99.90
35127;DHT22;21300;52.006;5.798;2024-01-06T07:05:22;2.30;99.90
35127;DHT22;21300;52.006;5.798;2024-01-06T07:07:47;2.30;99.90
35127;DHT22;21300;52.006;5.798;2024-01-06T07:10:13;2.30;99.90
35127;DHT22;21300;52.006;5.798;2024-01-06T07:12:39;2.30;99.90
35127;DHT22;21300;52.006;5.798;2024-01-06T07:15:05;2.30;99.90
35127;DHT22;21300;52.006;5.798;2024-01-06T07:17:31;2.30;99.90
35127;DHT22;21300;52.006;5.798;2024-01-06T07:19:59;2.30;99.90
35127;DHT22;21300;52.006;5.798;2024-01-06T07:22:24;2.30;99.90
35127;DHT22;21300;52.006;5.798;2024-01-06T07:24:50;2.30;99.90
35127;DHT22;21300;52.006;5.798;2024-01-06T07:27:16;2.30;99.90
35127;DHT22;21300;52.006;5.798;2024-01-06T07:29:42;2.30;99.90
35127;DHT22;21300;52.006;5.798;2024-01-06T07:32:07;2.30;99.90
35127;DHT22;21300;52.006;5.798;2024-01-06T07:34:33;2.30;99.90
35127;DHT22;21300;52.006;5.798;2024-01-06T07:36:59;2.20;99.90
35127;DHT22;21300;52.006;5.798;2024-01-06T07:39:25;2.30;99.90
35127;DHT22;21300;52.006;5.798;2024-01-06T07:41:51;2.20;99.90
35127;DHT22;21300;52.006;5.798;2024-01-06T07:44:16;2.30;99.90
35127;DHT22;21300;52.006;5.798;2024-01-06T07:46:48;2.20;99.90
35127;DHT22;21300;52.006;5.798;2024-01-06T07:49:14;2.30;99.90
35127;DHT22;21300;52.006;5.798;2024-01-06T07:51:41;2.20;99.90
35127;DHT22;21300;52.006;5.798;2024-01-06T07:54:09;2.20;99.90
35127;DHT22;21300;52.006;5.798;2024-01-06T07:56:35;2.20;99.90
35127;DHT22;21300;52.006;5.798;2024-01-06T07:59:01;2.20;99.90
35127;DHT22;21300;52.006;5.798;2024-01-06T08:01:27;2.20;99.90
35127;DHT22;21300;52.006;5.798;2024-01-06T08:03:53;2.20;99.90
35127;DHT22;21300;52.006;5.798;2024-01-06T08:06:19;2.10;99.90
35127;DHT22;21300;52.006;5.798;2024-01-06T08:08:45;2.20;99.90
35127;DHT22;21300;52.006;5.798;2024-01-06T08:11:11;2.20;99.90
35127;DHT22;21300;52.006;5.798;2024-01-06T08:13:37;2.20;99.90
35127;DHT22;21300;52.006;5.798;2024-01-06T08:16:03;2.20;99.90
35127;DHT22;21300;52.006;5.798;2024-01-06T08:18:29;2.20;99.90
35127;DHT22;21300;52.006;5.798;2024-01-06T08:20:55;2.20;99.90
35127;DHT22;21300;52.006;5.798;2024-01-06T08:23:24;2.20;99.90
35127;DHT22;21300;52.006;5.798;2024-01-06T08:25:50;2.20;99.90
35127;DHT22;21300;52.006;5.798;2024-01-06T08:28:15;2.20;99.90
35127;DHT22;21300;52.006;5.798;2024-01-06T08:30:41;2.20;99.90
35127;DHT22;21300;52.006;5.798;2024-01-06T08:33:08;2.20;99.90
35127;DHT22;21300;52.006;5.798;2024-01-06T08:35:33;2.20;99.90
35127;DHT22;21300;52.006;5.798;2024-01-06T08:37:59;2.20;99.90
35127;DHT22;21300;52.006;5.798;2024-01-06T08:40:25;2.10;99.90
35127;DHT22;21300;52.006;5.798;2024-01-06T08:42:51;2.20;99.90
35127;DHT22;21300;52.006;5.798;2024-01-06T08:45:16;2.20;99.90
35127;DHT22;21300;52.006;5.798;2024-01-06T08:47:48;2.20;99.90
35127;DHT22;21300;52.006;5.798;2024-01-06T08:50:14;2.10;99.90
35127;DHT22;21300;52.006;5.798;2024-01-06T08:52:39;2.20;99.90
35127;DHT22;21300;52.006;5.798;2024-01-06T08:55:05;2.10;99.90
35127;DHT22;21300;52.006;5.798;2024-01-06T08:57:31;2.20;99.90
35127;DHT22;21300;52.006;5.798;2024-01-06T08:59:57;2.20;99.90
35127;DHT22;21300;52.006;5.798;2024-01-06T09:02:22;2.20;99.90
35127;DHT22;21300;52.006;5.798;2024-01-06T09:04:48;2.20;99.90
35127;DHT22;21300;52.006;5.798;2024-01-06T09:07:14;2.20;99.90
35127;DHT22;21300;52.006;5.798;2024-01-06T09:09:39;2.10;99.90
35127;DHT22;21300;52.006;5.798;2024-01-06T09:12:05;2.10;99.90
35127;DHT22;21300;52.006;5.798;2024-01-06T09:14:31;2.20;99.90
35127;DHT22;21300;52.006;5.798;2024-01-06T09:16:57;2.20;99.90
35127;DHT22;21300;52.006;5.798;2024-01-06T09:19:22;2.10;99.90
35127;DHT22;21300;52.006;5.798;2024-01-06T09:21:48;2.10;99.90
35127;DHT22;21300;52.006;5.798;2024-01-06T09:24:14;2.10;99.90
35127;DHT22;21300;52.006;5.798;2024-01-06T09:26:58;2.10;99.90
35127;DHT22;21300;52.006;5.798;2024-01-06T09:29:24;2.10;99.90
35127;DHT22;21300;52.006;5.798;2024-01-06T09:31:49;2.10;99.90
35127;DHT22;21300;52.006;5.798;2024-01-06T09:34:15;2.10;99.90
35127;DHT22;21300;52.006;5.798;2024-01-06T09:36:40;2.20;99.90
35127;DHT22;21300;52.006;5.798;2024-01-06T09:39:06;2.20;99.90
35127;DHT22;21300;52.006;5.798;2024-01-06T09:41:33;2.20;99.90
35127;DHT22;21300;52.006;5.798;2024-01-06T09:43:59;2.20;99.90
35127;DHT22;21300;52.006;5.798;2024-01-06T09:46:27;2.10;99.90
35127;DHT22;21300;52.006;5.798;2024-01-06T09:48:54;2.20;99.90
35127;DHT22;21300;52.006;5.798;2024-01-06T09:51:20;2.20;99.90
35127;DHT22;21300;52.006;5.798;2024-01-06T09:56:18;2.10;99.90
35127;DHT22;21300;52.006;5.798;2024-01-06T09:58:44;2.20;99.90
35127;DHT22;21300;52.006;5.798;2024-01-06T10:01:11;2.20;99.90
35127;DHT22;21300;52.006;5.798;2024-01-06T10:03:37;2.20;99.90
35127;DHT22;21300;52.006;5.798;2024-01-06T10:06:03;2.20;99.90
35127;DHT22;21300;52.006;5.798;2024-01-06T10:08:30;2.20;99.90
35127;DHT22;21300;52.006;5.798;2024-01-06T10:10:59;2.20;99.90
35127;DHT22;21300;52.006;5.798;2024-01-06T10:13:25;2.20;99.90
35127;DHT22;21300;52.006;5.798;2024-01-06T10:15:51;2.20;99.90
35127;DHT22;21300;52.006;5.798;2024-01-06T10:18:17;2.20;99.90
35127;DHT22;21300;52.006;5.798;2024-01-06T10:20:47;2.20;99.90
35127;DHT22;21300;52.006;5.798;2024-01-06T10:23:13;2.20;99.90
35127;DHT22;21300;52.006;5.798;2024-01-06T10:25:39;2.20;99.90
35127;DHT22;21300;52.006;5.798;2024-01-06T10:28:16;2.20;99.90
35127;DHT22;21300;52.006;5.798;2024-01-06T10:30:42;2.20;99.90
35127;DHT22;21300;52.006;5.798;2024-01-06T10:33:09;2.20;99.90
35127;DHT22;21300;52.006;5.798;2024-01-06T10:35:36;2.20;99.90
35127;DHT22;21300;52.006;5.798;2024-01-06T10:38:03;2.20;99.90
35127;DHT22;21300;52.006;5.798;2024-01-06T10:40:29;2.20;99.90
35127;DHT22;21300;52.006;5.798;2024-01-06T10:42:56;2.20;99.90
35127;DHT22;21300;52.006;5.798;2024-01-06T10:45:23;2.20;99.90
35127;DHT22;21300;52.006;5.798;2024-01-06T10:47:49;2.20;99.90
35127;DHT22;21300;52.006;5.798;2024-01-06T10:50:17;2.20;99.90
35127;DHT22;21300;52.006;5.798;2024-01-06T10:52:43;2.20;99.90
35127;DHT22;21300;52.006;5.798;2024-01-06T10:55:09;2.20;99.90
35127;DHT22;21300;52.006;5.798;2024-01-06T10:57:37;2.20;99.90
35127;DHT22;21300;52.006;5.798;2024-01-06T11:00:09;2.20;99.90
35127;DHT22;21300;52.006;5.798;2024-01-06T11:02:39;2.20;99.90
35127;DHT22;21300;52.006;5.798;2024-01-06T11:05:04;2.20;99.90
35127;DHT22;21300;52.006;5.798;2024-01-06T11:07:33;2.20;99.90
35127;DHT22;21300;52.006;5.798;2024-01-06T11:10:16;2.20;99.90
35127;DHT22;21300;52.006;5.798;2024-01-06T11:12:43;2.20;99.90
35127;DHT22;21300;52.006;5.798;2024-01-06T11:18:48;2.30;99.90
35127;DHT22;21300;52.006;5.798;2024-01-06T11:23:39;2.30;99.90
35127;DHT22;21300;52.006;5.798;2024-01-06T11:26:09;2.20;99.90
35127;DHT22;21300;52.006;5.798;2024-01-06T11:28:45;2.20;99.90
35127;DHT22;21300;52.006;5.798;2024-01-06T11:31:11;2.20;99.90
35127;DHT22;21300;52.006;5.798;2024-01-06T11:33:44;2.20;99.90
35127;DHT22;21300;52.006;5.798;2024-01-06T11:36:10;2.20;99.90
35127;DHT22;21300;52.006;5.798;2024-01-06T11:38:39;2.20;99.90
35127;DHT22;21300;52.006;5.798;2024-01-06T11:41:08;2.20;99.90
35127;DHT22;21300;52.006;5.798;2024-01-06T11:43:37;2.20;99.90
35127;DHT22;21300;52.006;5.798;2024-01-06T11:46:05;2.20;99.90
35127;DHT22;21300;52.006;5.798;2024-01-06T11:48:32;2.20;99.90
35127;DHT22;21300;52.006;5.798;2024-01-06T11:50:59;2.20;99.90
35127;DHT22;21300;52.006;5.798;2024-01-06T11:53:26;2.20;99.90
35127;DHT22;21300;52.006;5.798;2024-01-06T11:55:52;2.20;99.90
35127;DHT22;21300;52.006;5.798;2024-01-06T11:58:18;2.20;99.90
35127;DHT22;21300;52.006;5.798;2024-01-06T12:00:43;2.20;99.90
35127;DHT22;21300;52.006;5.798;2024-01-06T12:03:09;2.20;99.90
35127;DHT22;21300;52.006;5.798;2024-01-06T12:05:35;2.20;99.90
35127;DHT22;21300;52.006;5.798;2024-01-06T12:08:02;2.10;99.90
35127;DHT22;21300;52.006;5.798;2024-01-06T12:10:32;2.20;99.90
35127;DHT22;21300;52.006;5.798;2024-01-06T12:15:26;2.20;99.90
35127;DHT22;21300;52.006;5.798;2024-01-06T12:17:52;2.20;99.90
35127;DHT22;21300;52.006;5.798;2024-01-06T12:20:18;2.20;99.90
35127;DHT22;21300;52.006;5.798;2024-01-06T12:22:44;2.20;99.90
35127;DHT22;21300;52.006;5.798;2024-01-06T12:25:10;2.10;99.90
35127;DHT22;21300;52.006;5.798;2024-01-06T12:27:36;2.10;99.90
35127;DHT22;21300;52.006;5.798;2024-01-06T12:30:02;2.10;99.90
35127;DHT22;21300;52.006;5.798;2024-01-06T12:32:28;2.00;99.90
35127;DHT22;21300;52.006;5.798;2024-01-06T12:34:54;2.10;99.90
35127;DHT22;21300;52.006;5.798;2024-01-06T12:37:22;2.00;99.90
35127;DHT22;21300;52.006;5.798;2024-01-06T12:39:50;2.00;99.90
35127;DHT22;21300;52.006;5.798;2024-01-06T12:42:17;2.10;99.90
35127;DHT22;21300;52.006;5.798;2024-01-06T12:44:43;2.10;99.90
35127;DHT22;21300;52.006;5.798;2024-01-06T12:47:08;2.00;99.90
35127;DHT22;21300;52.006;5.798;2024-01-06T12:49:35;2.10;99.90
35127;DHT22;21300;52.006;5.798;2024-01-06T12:52:01;2.00;99.90
35127;DHT22;21300;52.006;5.798;2024-01-06T12:54:26;2.10;99.90
35127;DHT22;21300;52.006;5.798;2024-01-06T12:56:52;2.10;99.90
35127;DHT22;21300;52.006;5.798;2024-01-06T12:59:17;2.10;99.90
35127;DHT22;21300;52.006;5.798;2024-01-06T13:01:44;2.10;99.90
35127;DHT22;21300;52.006;5.798;2024-01-06T13:04:09;2.10;99.90
35127;DHT22;21300;52.006;5.798;2024-01-06T13:06:35;2.10;99.90
35127;DHT22;21300;52.006;5.798;2024-01-06T13:09:01;2.20;99.90
35127;DHT22;21300;52.006;5.798;2024-01-06T13:11:32;2.20;99.90
35127;DHT22;21300;52.006;5.798;2024-01-06T13:13:57;2.20;99.90
35127;DHT22;21300;52.006;5.798;2024-01-06T13:16:23;2.20;99.90
35127;DHT22;21300;52.006;5.798;2024-01-06T13:18:48;2.20;99.90
35127;DHT22;21300;52.006;5.798;2024-01-06T13:21:14;2.20;99.90
35127;DHT22;21300;52.006;5.798;2024-01-06T13:23:40;2.20;99.90
35127;DHT22;21300;52.006;5.798;2024-01-06T13:26:08;2.10;99.90
35127;DHT22;21300;52.006;5.798;2024-01-06T13:28:34;2.10;99.90
35127;DHT22;21300;52.006;5.798;2024-01-06T13:31:06;2.10;99.90
35127;DHT22;21300;52.006;5.798;2024-01-06T13:33:32;2.10;99.90
35127;DHT22;21300;52.006;5.798;2024-01-06T13:35:58;2.10;99.90
35127;DHT22;21300;52.006;5.798;2024-01-06T13:38:24;2.10;99.90
35127;DHT22;21300;52.006;5.798;2024-01-06T13:40:51;2.10;99.90
35127;DHT22;21300;52.006;5.798;2024-01-06T13:43:17;2.10;99.90
35127;DHT22;21300;52.006;5.798;2024-01-06T13:45:43;2.10;99.90
35127;DHT22;21300;52.006;5.798;2024-01-06T13:48:13;2.10;99.90
35127;DHT22;21300;52.006;5.798;2024-01-06T13:50:39;2.10;99.90
35127;DHT22;21300;52.006;5.798;2024-01-06T13:53:05;2.10;99.90
35127;DHT22;21300;52.006;5.798;2024-01-06T13:55:33;2.10;99.90
35127;DHT22;21300;52.006;5.798;2024-01-06T13:57:59;2.10;99.90
35127;DHT22;21300;52.006;5.798;2024-01-06T14:00:25;2.10;99.90
35127;DHT22;21300;52.006;5.798;2024-01-06T14:02:51;2.10;99.90
35127;DHT22;21300;52.006;5.798;2024-01-06T14:05:17;2.10;99.90
35127;DHT22;21300;52.006;5.798;2024-01-06T14:07:45;2.10;99.90
35127;DHT22;21300;52.006;5.798;2024-01-06T14:10:12;2.10;99.90
35127;DHT22;21300;52.006;5.798;2024-01-06T14:12:42;2.10;99.90
35127;DHT22;21300;52.006;5.798;2024-01-06T14:15:08;2.10;99.90
35127;DHT22;21300;52.006;5.798;2024-01-06T14:17:38;2.10;99.90
35127;DHT22;21300;52.006;5.798;2024-01-06T14:20:07;2.10;99.90
35127;DHT22;21300;52.006;5.798;2024-01-06T14:22:41;2.10;99.90
35127;DHT22;21300;52.006;5.798;2024-01-06T14:25:07;2.10;99.90
35127;DHT22;21300;52.006;5.798;2024-01-06T14:27:32;2.00;99.90
35127;DHT22;21300;52.006;5.798;2024-01-06T14:29:58;2.00;99.90
35127;DHT22;21300;52.006;5.798;2024-01-06T14:32:24;2.00;99.90
35127;DHT22;21300;52.006;5.798;2024-01-06T14:34:50;2.00;99.90
35127;DHT22;21300;52.006;5.798;2024-01-06T14:37:18;2.10;99.90
35127;DHT22;21300;52.006;5.798;2024-01-06T14:39:44;2.10;99.90
35127;DHT22;21300;52.006;5.798;2024-01-06T14:42:09;2.00;99.90
35127;DHT22;21300;52.006;5.798;2024-01-06T14:44:35;2.00;99.90
35127;DHT22;21300;52.006;5.798;2024-01-06T14:47:01;2.10;99.90
35127;DHT22;21300;52.006;5.798;2024-01-06T14:49:26;2.10;99.90
35127;DHT22;21300;52.006;5.798;2024-01-06T14:51:52;2.10;99.90
35127;DHT22;21300;52.006;5.798;2024-01-06T14:54:18;2.10;99.90
35127;DHT22;21300;52.006;5.798;2024-01-06T14:56:43;2.10;99.90
35127;DHT22;21300;52.006;5.798;2024-01-06T14:59:09;2.10;99.90
35127;DHT22;21300;52.006;5.798;2024-01-06T15:01:35;2.10;99.90
35127;DHT22;21300;52.006;5.798;2024-01-06T15:04:00;2.00;99.90
35127;DHT22;21300;52.006;5.798;2024-01-06T15:06:26;2.00;99.90
35127;DHT22;21300;52.006;5.798;2024-01-06T15:08:52;2.10;99.90
35127;DHT22;21300;52.006;5.798;2024-01-06T15:11:17;2.10;99.90
35127;DHT22;21300;52.006;5.798;2024-01-06T15:13:43;2.10;99.90
35127;DHT22;21300;52.006;5.798;2024-01-06T15:16:13;2.10;99.90
35127;DHT22;21300;52.006;5.798;2024-01-06T15:18:38;2.10;99.90
35127;DHT22;21300;52.006;5.798;2024-01-06T15:21:04;2.10;99.90
35127;DHT22;21300;52.006;5.798;2024-01-06T15:23:30;2.10;99.90
35127;DHT22;21300;52.006;5.798;2024-01-06T15:25:56;2.10;99.90
35127;DHT22;21300;52.006;5.798;2024-01-06T15:28:21;2.10;99.90
35127;DHT22;21300;52.006;5.798;2024-01-06T15:30:47;2.10;99.90
35127;DHT22;21300;52.006;5.798;2024-01-06T15:33:13;2.10;99.90
35127;DHT22;21300;52.006;5.798;2024-01-06T15:35:39;2.10;99.90
35127;DHT22;21300;52.006;5.798;2024-01-06T15:38:05;2.10;99.90
35127;DHT22;21300;52.006;5.798;2024-01-06T15:40:31;2.10;99.90
35127;DHT22;21300;52.006;5.798;2024-01-06T15:42:56;2.00;99.90
35127;DHT22;21300;52.006;5.798;2024-01-06T15:45:22;2.10;99.90
35127;DHT22;21300;52.006;5.798;2024-01-06T15:47:47;2.10;99.90
35127;DHT22;21300;52.006;5.798;2024-01-06T15:50:13;2.10;99.90